Time;durP1;ratioP1;P1;durP2;ratioP2;P2;SDS_P1;SDS_P2;PMS_P1;PMS_P2;Temp;Humidity;BMP_temperature;BMP_pressure;BME280_temperature;BME280_humidity;BME280_pressure;Samples;Min_cycle;Max_cycle;Signal;HPM_P1;HPM_P2
2023/05/09 00:00:16;;;;;;;10.55;9.55;;;20.40;1.00;;;;;;5032593;28;20353;-63
2023/05/09 00:02:44;;;;;;;11.02;9.90;;;20.30;1.00;;;;;;5033580;28;20076;-63
2023/05/09 00:05:10;;;;;;;9.65;8.68;;;20.40;1.00;;;;;;5033659;28;20036;-63
2023/05/09 00:07:36;;;;;;;10.05;9.15;;;20.40;1.00;;;;;;5033857;28;20025;-63
2023/05/09 00:10:02;;;;;;;10.70;9.70;;;20.30;1.00;;;;;;5033637;28;20026;-63
2023/05/09 00:12:29;;;;;;;10.27;8.85;;;20.30;1.00;;;;;;5033592;28;20033;-63
2023/05/09 00:14:55;;;;;;;10.07;9.07;;;20.30;1.00;;;;;;5033521;28;20048;-63
2023/05/09 00:17:22;;;;;;;10.85;8.60;;;20.30;1.00;;;;;;5033671;28;20041;-63
2023/05/09 00:19:49;;;;;;;8.55;7.82;;;20.20;1.00;;;;;;5033437;28;20364;-63
2023/05/09 00:22:16;;;;;;;9.70;8.25;;;20.20;1.00;;;;;;5035936;28;20355;-63
2023/05/09 00:24:42;;;;;;;9.13;8.43;;;20.20;1.00;;;;;;5043155;28;20029;-64
2023/05/09 00:27:09;;;;;;;9.00;8.13;;;20.10;1.00;;;;;;5033322;28;20550;-63
2023/05/09 00:29:34;;;;;;;9.60;8.63;;;20.10;1.00;;;;;;5032033;28;20388;-63
2023/05/09 00:32:03;;;;;;;9.07;8.27;;;20.00;1.00;;;;;;5033235;28;20025;-63
2023/05/09 00:34:29;;;;;;;8.82;7.95;;;20.00;1.00;;;;;;5033120;28;20018;-64
2023/05/09 00:36:55;;;;;;;8.38;7.55;;;20.00;1.00;;;;;;5033287;28;20071;-63
2023/05/09 00:39:20;;;;;;;9.25;8.38;;;20.00;1.00;;;;;;5032521;28;20025;-63
2023/05/09 00:41:46;;;;;;;9.25;8.20;;;19.90;1.00;;;;;;5032788;28;20453;-63
2023/05/09 00:44:12;;;;;;;8.65;7.85;;;19.90;1.00;;;;;;5033210;28;20068;-64
2023/05/09 00:46:38;;;;;;;8.35;7.65;;;20.00;1.00;;;;;;5033352;28;20120;-63
2023/05/09 00:49:04;;;;;;;8.73;7.82;;;20.00;1.00;;;;;;5033200;28;20034;-63
2023/05/09 00:51:31;;;;;;;8.23;7.43;;;20.10;1.00;;;;;;5032213;28;20029;-63
2023/05/09 00:53:57;;;;;;;8.05;7.25;;;20.00;1.00;;;;;;5032964;28;20067;-64
2023/05/09 00:56:23;;;;;;;8.38;7.38;;;20.00;1.00;;;;;;5032837;28;20026;-64
2023/05/09 00:58:49;;;;;;;8.68;7.72;;;20.00;1.00;;;;;;5032956;28;20112;-63
2023/05/09 01:01:15;;;;;;;10.63;7.30;;;20.00;1.00;;;;;;5025412;28;20029;-63
2023/05/09 01:03:42;;;;;;;8.07;7.38;;;19.90;1.00;;;;;;5026242;28;20044;-63
2023/05/09 01:06:38;;;;;;;8.30;7.32;;;19.90;1.00;;;;;;5032344;28;20091;-63
2023/05/09 01:09:10;;;;;;;8.20;7.40;;;19.90;1.00;;;;;;5032079;28;20044;-63
2023/05/09 01:11:51;;;;;;;8.07;7.28;;;19.90;1.00;;;;;;5017897;28;20025;-63
2023/05/09 01:14:34;;;;;;;8.00;7.30;;;19.90;1.00;;;;;;5031628;28;20021;-63
2023/05/09 01:17:07;;;;;;;7.97;7.22;;;19.90;1.00;;;;;;5031463;28;20021;-63
2023/05/09 01:19:57;;;;;;;7.53;6.93;;;20.00;1.00;;;;;;5032112;28;20041;-63
2023/05/09 01:22:31;;;;;;;7.35;6.75;;;20.00;1.00;;;;;;5032002;28;20288;-63
2023/05/09 01:25:19;;;;;;;7.28;6.68;;;19.90;1.00;;;;;;5031935;28;20124;-63
2023/05/09 01:28:26;;;;;;;7.63;6.90;;;20.00;1.00;;;;;;5019855;28;20021;-63
2023/05/09 01:30:53;;;;;;;8.23;7.53;;;19.90;1.00;;;;;;5032131;28;20036;-65
2023/05/09 01:33:21;;;;;;;9.68;7.10;;;20.00;1.00;;;;;;5030069;28;20036;-64
2023/05/09 01:35:52;;;;;;;8.10;7.35;;;20.00;1.00;;;;;;5029648;28;20028;-63
2023/05/09 01:38:22;;;;;;;8.18;7.38;;;20.00;1.00;;;;;;5030727;28;20029;-63
2023/05/09 01:40:51;;;;;;;8.90;7.95;;;20.00;1.00;;;;;;5031700;28;20049;-63
2023/05/09 01:43:20;;;;;;;9.10;8.20;;;20.10;1.00;;;;;;5031790;28;20040;-64
2023/05/09 01:45:47;;;;;;;9.98;9.07;;;20.10;1.00;;;;;;5031753;28;20029;-63
2023/05/09 01:48:14;;;;;;;8.25;7.28;;;20.00;1.00;;;;;;5031742;28;20491;-64
2023/05/09 01:50:44;;;;;;;8.05;7.25;;;20.10;1.00;;;;;;5032512;28;20046;-63
2023/05/09 01:53:11;;;;;;;8.07;7.20;;;20.10;1.00;;;;;;5031540;28;20056;-63
2023/05/09 01:55:38;;;;;;;8.55;7.75;;;20.10;1.00;;;;;;5032800;28;20099;-63
2023/05/09 01:58:05;;;;;;;9.05;8.20;;;20.10;1.00;;;;;;5032327;28;20033;-63
2023/05/09 02:00:33;;;;;;;8.85;7.97;;;20.00;1.00;;;;;;5032574;28;20032;-63
2023/05/09 02:02:58;;;;;;;10.35;8.57;;;20.00;1.00;;;;;;5035261;28;20448;-63
2023/05/09 02:05:27;;;;;;;9.93;8.93;;;19.90;1.00;;;;;;5036331;28;20049;-64
2023/05/09 02:07:58;;;;;;;10.40;9.40;;;19.90;1.00;;;;;;5035917;28;20391;-63
2023/05/09 02:10:26;;;;;;;9.90;9.00;;;20.00;1.00;;;;;;5036178;28;20088;-64
2023/05/09 02:12:52;;;;;;;12.93;10.68;;;19.90;1.00;;;;;;5035896;28;20375;-63
2023/05/09 02:15:18;;;;;;;10.95;9.95;;;20.00;1.00;;;;;;5036108;28;20082;-63
2023/05/09 02:17:44;;;;;;;12.50;11.30;;;19.90;1.00;;;;;;5018000;28;20475;-64
2023/05/09 02:20:10;;;;;;;13.60;12.30;;;19.90;1.00;;;;;;5035761;28;20021;-64
2023/05/09 02:22:38;;;;;;;12.77;11.52;;;19.90;1.00;;;;;;5035829;28;20053;-63
2023/05/09 02:25:06;;;;;;;14.07;12.68;;;20.00;1.00;;;;;;5035570;28;20045;-63
2023/05/09 02:27:33;;;;;;;13.75;12.35;;;19.90;1.00;;;;;;5035915;28;20033;-64
2023/05/09 02:30:03;;;;;;;16.80;13.57;;;19.90;1.00;;;;;;5035889;28;20029;-63
2023/05/09 02:32:31;;;;;;;15.85;14.30;;;20.00;1.00;;;;;;5035617;28;20072;-63
2023/05/09 02:34:59;;;;;;;15.95;14.43;;;19.90;1.00;;;;;;5035712;28;20436;-63
2023/05/09 02:37:25;;;;;;;15.75;14.15;;;19.90;1.00;;;;;;5035437;28;20108;-64
2023/05/09 02:39:51;;;;;;;15.95;14.23;;;19.90;1.00;;;;;;5035700;28;20376;-63
2023/05/09 02:42:21;;;;;;;15.52;14.00;;;20.00;1.00;;;;;;5035568;28;20041;-63
2023/05/09 02:44:47;;;;;;;15.48;13.88;;;20.00;1.00;;;;;;5035522;28;20479;-63
2023/05/09 02:47:12;;;;;;;14.00;12.60;;;20.00;1.00;;;;;;5035221;28;20027;-64
2023/05/09 02:49:38;;;;;;;15.93;13.77;;;20.00;1.00;;;;;;5035184;28;20450;-63
2023/05/09 02:52:04;;;;;;;15.35;13.77;;;20.00;1.00;;;;;;5035293;28;20040;-63
2023/05/09 02:54:30;;;;;;;15.05;13.68;;;19.90;1.00;;;;;;5035040;28;20021;-63
2023/05/09 02:56:55;;;;;;;14.50;13.00;;;19.90;1.00;;;;;;5035334;28;20029;-63
2023/05/09 02:59:21;;;;;;;14.15;12.75;;;19.90;1.00;;;;;;5035157;28;20022;-63
2023/05/09 03:01:46;;;;;;;13.85;12.55;;;20.00;1.00;;;;;;5035007;28;20115;-63
2023/05/09 03:04:12;;;;;;;12.32;11.13;;;19.90;1.00;;;;;;5035063;28;20588;-63
2023/05/09 03:06:38;;;;;;;13.50;11.75;;;19.90;1.00;;;;;;5034825;28;20134;-63
2023/05/09 03:09:03;;;;;;;12.48;11.27;;;19.80;1.00;;;;;;5034880;28;20025;-63
2023/05/09 03:11:29;;;;;;;11.73;10.60;;;19.90;1.00;;;;;;5034778;28;20052;-63
2023/05/09 03:13:55;;;;;;;11.70;10.20;;;19.90;1.00;;;;;;5033958;28;20022;-63
2023/05/09 03:16:21;;;;;;;11.05;9.90;;;19.90;1.00;;;;;;5034662;28;20029;-63
2023/05/09 03:18:46;;;;;;;10.98;9.93;;;19.90;1.00;;;;;;5034654;28;20033;-63
2023/05/09 03:21:12;;;;;;;11.77;10.57;;;19.90;1.00;;;;;;5034667;28;20035;-63
2023/05/09 03:23:38;;;;;;;12.05;10.85;;;19.90;1.00;;;;;;5034424;28;20037;-63
2023/05/09 03:26:04;;;;;;;13.52;11.05;;;19.80;1.00;;;;;;5034836;28;20459;-63
2023/05/09 03:28:30;;;;;;;11.60;10.50;;;19.80;1.00;;;;;;5033184;28;20079;-64
2023/05/09 03:30:56;;;;;;;11.80;10.70;;;19.90;1.00;;;;;;5033281;28;20124;-63
2023/05/09 03:33:22;;;;;;;11.30;10.20;;;19.80;1.00;;;;;;5034204;28;20111;-63
2023/05/09 03:35:47;;;;;;;11.25;10.15;;;19.90;1.00;;;;;;5034401;28;20476;-63
2023/05/09 03:38:13;;;;;;;11.25;10.15;;;19.90;1.00;;;;;;5034366;28;20034;-64
2023/05/09 03:40:38;;;;;;;11.10;10.10;;;19.90;1.00;;;;;;5034068;28;20050;-63
2023/05/09 03:43:04;;;;;;;12.30;11.20;;;19.90;1.00;;;;;;5016413;28;20048;-64
2023/05/09 03:45:30;;;;;;;12.05;10.25;;;19.80;1.00;;;;;;5034208;28;20037;-63
2023/05/09 03:47:55;;;;;;;13.18;11.82;;;19.80;1.00;;;;;;5034076;28;20025;-63
2023/05/09 03:50:21;;;;;;;11.65;10.43;;;19.70;1.00;;;;;;5034061;28;20436;-63
2023/05/09 03:52:47;;;;;;;11.20;10.07;;;19.80;1.00;;;;;;5033806;28;20025;-64
2023/05/09 03:55:12;;;;;;;12.18;10.50;;;19.70;1.00;;;;;;5034203;28;20032;-63
2023/05/09 03:57:38;;;;;;;12.57;11.35;;;19.80;1.00;;;;;;5033916;28;20478;-63
2023/05/09 04:00:05;;;;;;;13.18;11.73;;;19.70;1.00;;;;;;5033914;28;20017;-64
2023/05/09 04:02:32;;;;;;;11.38;10.25;;;19.70;1.00;;;;;;5034169;28;20036;-63
2023/05/09 04:04:59;;;;;;;11.57;10.48;;;19.70;1.00;;;;;;5033541;28;20071;-63
2023/05/09 04:07:25;;;;;;;13.63;12.32;;;19.70;1.00;;;;;;5032584;28;20053;-63
2023/05/09 04:09:51;;;;;;;13.93;12.45;;;19.60;1.00;;;;;;5033640;28;20055;-63
2023/05/09 04:12:16;;;;;;;12.85;11.65;;;19.70;1.00;;;;;;5026499;28;20022;-63
2023/05/09 04:14:43;;;;;;;12.60;11.15;;;19.60;1.00;;;;;;5029021;28;20032;-63
2023/05/09 04:17:09;;;;;;;13.82;12.52;;;19.60;1.00;;;;;;5032294;28;20075;-63
2023/05/09 04:19:34;;;;;;;12.52;11.32;;;19.50;1.00;;;;;;5033590;28;20025;-63
2023/05/09 04:22:00;;;;;;;12.57;11.27;;;19.60;1.00;;;;;;5033408;28;20013;-63
2023/05/09 04:24:26;;;;;;;13.10;11.85;;;19.60;1.00;;;;;;5033318;28;20041;-63
2023/05/09 04:26:51;;;;;;;12.55;11.35;;;19.60;1.00;;;;;;5033438;28;20044;-63
2023/05/09 04:29:17;;;;;;;12.98;11.70;;;19.60;1.00;;;;;;5033678;28;20389;-63
2023/05/09 04:31:42;;;;;;;12.05;10.98;;;19.60;1.00;;;;;;5033540;28;20078;-63
2023/05/09 04:34:08;;;;;;;12.77;11.45;;;19.60;1.00;;;;;;5033479;28;20383;-63
2023/05/09 04:36:34;;;;;;;12.15;11.02;;;19.50;1.00;;;;;;5033451;28;20026;-63
2023/05/09 04:38:59;;;;;;;11.65;10.52;;;19.60;1.00;;;;;;5031854;28;20024;-63
2023/05/09 04:41:26;;;;;;;12.30;11.05;;;19.70;1.00;;;;;;5033006;28;20056;-63
2023/05/09 04:43:52;;;;;;;11.75;10.60;;;19.70;1.00;;;;;;5032976;28;20034;-63
2023/05/09 04:46:17;;;;;;;11.70;10.60;;;19.50;1.00;;;;;;5033464;28;20098;-64
2023/05/09 04:48:43;;;;;;;11.80;10.57;;;19.50;1.00;;;;;;5032148;28;20391;-63
2023/05/09 04:51:09;;;;;;;12.75;11.43;;;19.60;1.00;;;;;;5032033;28;20022;-63
2023/05/09 04:53:34;;;;;;;12.55;10.65;;;19.60;1.00;;;;;;5022388;28;20060;-63
2023/05/09 04:56:00;;;;;;;11.63;10.25;;;19.70;1.00;;;;;;5033242;28;20033;-64
2023/05/09 04:58:25;;;;;;;11.48;10.30;;;19.70;1.00;;;;;;5033029;28;20037;-64
2023/05/09 05:00:52;;;;;;;11.07;10.07;;;19.70;1.00;;;;;;5033176;28;20078;-64
2023/05/09 05:03:17;;;;;;;12.02;10.07;;;19.70;1.00;;;;;;5032679;28;20111;-64
2023/05/09 05:05:43;;;;;;;10.77;9.68;;;19.70;1.00;;;;;;5032941;28;20033;-64
2023/05/09 05:08:09;;;;;;;10.45;9.35;;;19.70;1.00;;;;;;5032676;28;20549;-63
2023/05/09 05:10:35;;;;;;;10.15;9.07;;;19.80;1.00;;;;;;5032786;28;20049;-64
2023/05/09 05:13:01;;;;;;;9.90;8.90;;;19.70;1.00;;;;;;5030907;28;20041;-63
2023/05/09 05:15:26;;;;;;;12.13;8.45;;;19.70;1.00;;;;;;5031655;28;20130;-63
2023/05/09 05:17:55;;;;;;;9.25;8.35;;;19.80;1.00;;;;;;5031377;28;20037;-64
2023/05/09 05:20:21;;;;;;;9.63;8.43;;;19.90;1.00;;;;;;5032786;28;20025;-63
2023/05/09 05:22:46;;;;;;;9.48;8.50;;;19.80;1.00;;;;;;5033006;28;20022;-64
2023/05/09 05:25:12;;;;;;;9.95;8.05;;;19.90;1.00;;;;;;5032469;28;20037;-63
2023/05/09 05:27:38;;;;;;;10.02;8.02;;;19.80;1.00;;;;;;5032801;28;20032;-64
2023/05/09 05:30:04;;;;;;;9.68;8.88;;;19.80;1.00;;;;;;5032540;28;20025;-64
2023/05/09 05:32:29;;;;;;;10.52;9.52;;;19.80;1.00;;;;;;5032920;28;20045;-64
2023/05/09 05:34:56;;;;;;;9.90;8.02;;;19.90;1.00;;;;;;5032548;28;20053;-64
2023/05/09 05:37:21;;;;;;;9.98;8.98;;;19.80;1.00;;;;;;5034858;28;20021;-64
2023/05/09 05:39:47;;;;;;;9.32;8.43;;;19.80;1.00;;;;;;5036944;28;20036;-64
2023/05/09 05:42:13;;;;;;;10.27;9.27;;;20.00;1.00;;;;;;5036098;28;20136;-64
2023/05/09 05:44:39;;;;;;;10.23;9.13;;;19.90;1.00;;;;;;5036511;28;20033;-64
2023/05/09 05:47:04;;;;;;;11.30;8.95;;;19.90;1.00;;;;;;5036412;28;20026;-64
2023/05/09 05:49:30;;;;;;;9.82;8.57;;;20.00;1.00;;;;;;5036430;28;20474;-64
2023/05/09 05:51:55;;;;;;;9.60;8.70;;;20.00;1.00;;;;;;5036232;28;20509;-64
2023/05/09 05:54:21;;;;;;;9.30;8.18;;;20.00;1.00;;;;;;5036322;28;20029;-64
2023/05/09 05:56:47;;;;;;;11.02;8.98;;;19.90;1.00;;;;;;5036271;28;20033;-63
2023/05/09 05:59:12;;;;;;;9.63;8.63;;;19.90;1.00;;;;;;5036320;28;20037;-64
2023/05/09 06:01:38;;;;;;;9.82;8.50;;;19.90;1.00;;;;;;5035911;28;20040;-64
2023/05/09 06:04:04;;;;;;;10.38;8.30;;;20.00;1.00;;;;;;5035853;28;20136;-64
2023/05/09 06:06:30;;;;;;;9.30;8.15;;;19.90;1.00;;;;;;5035966;28;20029;-64
2023/05/09 06:08:56;;;;;;;10.10;8.20;;;19.90;1.00;;;;;;5035997;28;20028;-64
2023/05/09 06:11:22;;;;;;;10.68;8.07;;;20.00;1.00;;;;;;5035763;28;20021;-64
2023/05/09 06:13:48;;;;;;;10.00;8.25;;;20.00;1.00;;;;;;5035703;28;20060;-64
2023/05/09 06:16:13;;;;;;;9.35;8.32;;;20.00;1.00;;;;;;5036097;28;20037;-64
2023/05/09 06:18:39;;;;;;;8.90;8.07;;;20.00;1.00;;;;;;5035796;28;20026;-64
2023/05/09 06:21:06;;;;;;;9.10;7.32;;;20.00;1.00;;;;;;5034556;28;20482;-64
2023/05/09 06:23:31;;;;;;;9.60;8.60;;;20.10;1.00;;;;;;5035302;28;20044;-64
2023/05/09 06:25:57;;;;;;;9.27;8.27;;;20.10;1.00;;;;;;5035698;28;20025;-64
2023/05/09 06:28:23;;;;;;;9.50;8.50;;;20.20;1.00;;;;;;5034337;28;20033;-64
2023/05/09 06:30:48;;;;;;;9.65;8.75;;;20.20;1.00;;;;;;5035851;28;20132;-64
2023/05/09 06:33:14;;;;;;;9.73;8.73;;;20.20;1.00;;;;;;5035555;28;20025;-64
2023/05/09 06:35:40;;;;;;;9.10;8.27;;;20.20;1.00;;;;;;5035441;28;20467;-64
2023/05/09 06:38:24;;;;;;;9.52;8.50;;;20.20;1.00;;;;;;5035467;28;20022;-64
2023/05/09 06:40:50;;;;;;;13.32;9.27;;;20.40;1.00;;;;;;5021549;28;20499;-64
2023/05/09 06:43:15;;;;;;;10.45;9.10;;;20.40;1.00;;;;;;5035003;28;20041;-64
2023/05/09 06:45:41;;;;;;;11.38;9.52;;;20.40;1.00;;;;;;5035002;28;20021;-64
2023/05/09 06:48:07;;;;;;;10.73;9.68;;;20.50;1.00;;;;;;5038411;28;20021;-64
2023/05/09 06:50:37;;;;;;;10.60;9.23;;;20.50;1.00;;;;;;5042789;28;20025;-64
2023/05/09 06:53:02;;;;;;;9.60;8.73;;;20.60;1.00;;;;;;5034661;28;20067;-64
2023/05/09 06:55:28;;;;;;;15.40;9.73;;;20.70;1.00;;;;;;5034534;28;20106;-64
2023/05/09 06:57:54;;;;;;;10.60;8.55;;;20.80;1.00;;;;;;5035042;28;20112;-64
2023/05/09 07:00:20;;;;;;;13.02;10.02;;;20.90;1.00;;;;;;5035235;28;20540;-64
2023/05/09 07:02:46;;;;;;;9.70;8.80;;;21.00;1.00;;;;;;5034910;28;20116;-64
2023/05/09 07:05:11;;;;;;;9.63;8.68;;;21.00;1.00;;;;;;5034737;28;20145;-64
2023/05/09 07:07:37;;;;;;;10.23;8.18;;;21.10;1.00;;;;;;5035167;28;20059;-64
2023/05/09 07:10:03;;;;;;;9.27;7.82;;;21.10;1.00;;;;;;5022903;28;20025;-64
2023/05/09 07:12:32;;;;;;;10.15;9.02;;;21.10;1.00;;;;;;5034920;28;20017;-64
2023/05/09 07:14:57;;;;;;;9.13;7.82;;;21.10;1.00;;;;;;5034743;28;20037;-65
2023/05/09 07:17:23;;;;;;;13.13;9.15;;;21.20;1.00;;;;;;5035003;28;20022;-65
2023/05/09 07:19:50;;;;;;;8.57;7.78;;;21.20;1.00;;;;;;5034685;28;20026;-65
2023/05/09 07:22:15;;;;;;;9.75;8.05;;;21.20;1.00;;;;;;5035011;28;20033;-64
2023/05/09 07:24:43;;;;;;;11.35;9.30;;;21.20;1.00;;;;;;5034568;28;20052;-64
2023/05/09 07:27:08;;;;;;;9.52;8.57;;;21.20;1.00;;;;;;5033632;28;20097;-65
2023/05/09 07:29:34;;;;;;;10.43;9.43;;;21.30;1.00;;;;;;5029780;28;20087;-64
2023/05/09 07:32:00;;;;;;;8.98;8.07;;;21.30;1.00;;;;;;5031924;28;20097;-64
2023/05/09 07:34:26;;;;;;;9.77;8.80;;;21.30;1.00;;;;;;5034444;28;20037;-64
2023/05/09 07:36:51;;;;;;;9.68;8.68;;;21.30;1.00;;;;;;5033244;28;20143;-67
2023/05/09 07:39:17;;;;;;;10.07;8.93;;;21.40;1.00;;;;;;5034634;28;20417;-67
2023/05/09 07:41:43;;;;;;;8.13;6.95;;;21.50;1.00;;;;;;5034037;28;20048;-66
2023/05/09 07:44:08;;;;;;;8.65;7.78;;;21.60;1.00;;;;;;5024712;28;20056;-66
2023/05/09 07:46:39;;;;;;;7.25;5.95;;;21.60;1.00;;;;;;5032821;28;20052;-66
2023/05/09 07:49:05;;;;;;;8.57;7.65;;;21.70;1.00;;;;;;5031347;28;20026;-66
2023/05/09 07:51:31;;;;;;;8.70;7.57;;;21.70;1.00;;;;;;5028526;28;20041;-66
2023/05/09 07:53:56;;;;;;;8.98;7.50;;;21.80;1.00;;;;;;5034033;28;20364;-66
2023/05/09 07:56:22;;;;;;;16.23;9.23;;;21.80;1.00;;;;;;5034314;28;20471;-67
2023/05/09 07:58:48;;;;;;;21.30;9.95;;;21.80;1.00;;;;;;5033910;28;20028;-67
2023/05/09 08:01:14;;;;;;;27.90;10.02;;;21.80;1.00;;;;;;5033517;28;20026;-67
2023/05/09 08:03:40;;;;;;;10.82;8.07;;;21.80;1.00;;;;;;5032311;28;20033;-66
2023/05/09 08:06:06;;;;;;;8.65;7.75;;;21.90;1.00;;;;;;5033760;28;20430;-66
2023/05/09 08:08:32;;;;;;;7.72;6.90;;;21.90;1.00;;;;;;5033843;28;20032;-66
2023/05/09 08:10:57;;;;;;;7.10;6.20;;;21.90;1.00;;;;;;5033959;28;20029;-66
2023/05/09 08:13:24;;;;;;;14.38;7.22;;;21.90;1.00;;;;;;5033663;28;20033;-66
2023/05/09 08:15:49;;;;;;;13.55;7.30;;;21.90;1.00;;;;;;5033610;28;20044;-66
2023/05/09 08:18:16;;;;;;;19.45;8.50;;;21.80;1.00;;;;;;5033895;28;20532;-66
2023/05/09 08:20:42;;;;;;;18.55;8.13;;;21.80;1.00;;;;;;5033369;28;20471;-66
2023/05/09 08:23:07;;;;;;;13.93;8.05;;;21.90;1.00;;;;;;5032188;28;20025;-66
2023/05/09 08:25:33;;;;;;;9.13;7.30;;;21.90;1.00;;;;;;5033406;28;20445;-67
2023/05/09 08:27:59;;;;;;;14.75;8.25;;;21.90;1.00;;;;;;5033526;28;20022;-67
2023/05/09 08:30:25;;;;;;;11.02;7.30;;;22.00;1.00;;;;;;5033403;28;20028;-66
2023/05/09 08:32:51;;;;;;;12.15;7.63;;;22.10;1.00;;;;;;5033195;28;20013;-66
2023/05/09 08:35:17;;;;;;;7.32;6.70;;;22.10;1.00;;;;;;5033175;28;20531;-66
2023/05/09 08:37:43;;;;;;;20.58;8.95;;;22.10;1.00;;;;;;5033382;28;20100;-66
2023/05/09 08:40:09;;;;;;;21.50;9.82;;;22.20;1.00;;;;;;5033311;28;20068;-66
2023/05/09 08:42:37;;;;;;;9.43;7.80;;;22.20;1.00;;;;;;5033548;28;20383;-66
2023/05/09 08:45:10;;;;;;;10.63;7.25;;;22.20;1.00;;;;;;5033190;28;20502;-66
2023/05/09 08:47:39;;;;;;;7.03;5.72;;;22.40;1.00;;;;;;5034924;28;20104;-66
2023/05/09 08:50:06;;;;;;;7.13;5.72;;;22.50;1.00;;;;;;5044941;28;20064;-67
2023/05/09 08:52:32;;;;;;;7.40;6.65;;;22.60;1.00;;;;;;5033239;28;20076;-66
2023/05/09 08:54:59;;;;;;;7.57;5.55;;;22.70;1.00;;;;;;5033046;28;20017;-66
2023/05/09 08:57:26;;;;;;;14.88;8.40;;;22.70;1.00;;;;;;5033066;28;20108;-67
2023/05/09 08:59:52;;;;;;;11.18;7.38;;;22.70;1.00;;;;;;5032777;28;20018;-64
2023/05/09 09:02:18;;;;;;;9.35;6.47;;;22.70;1.00;;;;;;5033088;28;20101;-64
2023/05/09 09:04:44;;;;;;;9.02;6.97;;;22.60;1.00;;;;;;5032602;28;20114;-64
2023/05/09 09:07:11;;;;;;;6.90;6.10;;;22.60;1.00;;;;;;5033003;28;20487;-64
2023/05/09 09:09:43;;;;;;;8.05;6.70;;;22.60;1.00;;;;;;5032770;28;20030;-64
2023/05/09 09:12:09;;;;;;;9.18;6.88;;;22.50;1.00;;;;;;5032243;28;20014;-64
2023/05/09 09:14:38;;;;;;;7.00;6.40;;;22.50;1.00;;;;;;5032926;28;20025;-65
2023/05/09 09:17:06;;;;;;;5.80;5.22;;;22.60;1.00;;;;;;5032816;28;20117;-66
2023/05/09 09:19:34;;;;;;;10.95;6.32;;;22.70;1.00;;;;;;5032752;28;20063;-65
2023/05/09 09:22:05;;;;;;;6.35;5.55;;;22.80;1.00;;;;;;5032872;28;20025;-65
2023/05/09 09:24:33;;;;;;;6.07;5.45;;;22.90;1.00;;;;;;5032958;28;20419;-53
2023/05/09 09:27:05;;;;;;;6.80;6.20;;;22.90;1.00;;;;;;5031726;28;20097;-64
2023/05/09 09:29:32;;;;;;;6.97;5.68;;;22.80;1.00;;;;;;5058993;28;20045;-63
2023/05/09 09:32:01;;;;;;;6.95;6.35;;;22.90;1.00;;;;;;5032763;28;20056;-65
2023/05/09 09:34:27;;;;;;;7.32;6.68;;;23.00;1.00;;;;;;5031961;28;20482;-64
2023/05/09 09:36:53;;;;;;;7.13;6.43;;;23.00;1.00;;;;;;5031459;28;20029;-64
2023/05/09 09:39:20;;;;;;;10.32;6.00;;;22.90;1.00;;;;;;5030133;28;20040;-64
2023/05/09 09:41:46;;;;;;;7.07;6.40;;;22.90;1.00;;;;;;5032079;28;20041;-64
2023/05/09 09:44:14;;;;;;;7.20;5.93;;;23.00;1.00;;;;;;5032281;28;20483;-64
2023/05/09 09:46:47;;;;;;;6.38;5.28;;;23.10;1.00;;;;;;5032550;28;20016;-64
2023/05/09 09:49:14;;;;;;;6.75;6.03;;;23.20;1.00;;;;;;5046292;28;20035;-65
2023/05/09 09:51:40;;;;;;;6.80;6.13;;;23.30;1.00;;;;;;5032790;28;20030;-64
2023/05/09 09:54:07;;;;;;;7.53;6.72;;;23.30;1.00;;;;;;5031165;28;20021;-65
2023/05/09 09:56:43;;;;;;;7.78;6.40;;;23.30;1.00;;;;;;5031328;28;20084;-65
2023/05/09 09:59:12;;;;;;;5.95;5.00;;;23.50;1.00;;;;;;5031109;28;20506;-64
2023/05/09 10:01:57;;;;;;;5.68;5.07;;;23.60;1.00;;;;;;5032345;28;20045;-65
2023/05/09 10:04:23;;;;;;;7.18;5.50;;;23.80;1.00;;;;;;5032334;28;20076;-65
2023/05/09 10:06:56;;;;;;;6.75;6.15;;;23.90;1.00;;;;;;5032422;28;20481;-65
2023/05/09 10:09:24;;;;;;;8.35;6.20;;;23.80;1.00;;;;;;5032789;28;20033;-65
2023/05/09 10:11:51;;;;;;;7.05;6.35;;;23.80;1.00;;;;;;5032495;28;20021;-65
2023/05/09 10:14:23;;;;;;;7.05;5.72;;;23.80;1.00;;;;;;5032371;28;20033;-65
2023/05/09 10:16:50;;;;;;;6.57;5.88;;;23.90;1.00;;;;;;5032245;28;20057;-65
2023/05/09 10:19:18;;;;;;;8.35;7.65;;;23.80;1.00;;;;;;5032321;28;20490;-65
2023/05/09 10:21:48;;;;;;;9.63;8.60;;;23.70;1.00;;;;;;5032153;28;20013;-65
2023/05/09 10:24:16;;;;;;;10.45;9.50;;;23.70;1.00;;;;;;5035433;28;20044;-65
2023/05/09 10:26:45;;;;;;;10.40;9.38;;;23.60;1.00;;;;;;5035610;28;20025;-65
2023/05/09 10:29:14;;;;;;;9.85;8.35;;;23.80;1.00;;;;;;5035562;28;20029;-64
2023/05/09 10:31:42;;;;;;;9.65;8.75;;;23.90;1.00;;;;;;5035661;28;20454;-63
2023/05/09 10:34:10;;;;;;;9.60;8.23;;;23.90;1.00;;;;;;5035528;28;20464;-64
2023/05/09 10:36:36;;;;;;;9.90;8.98;;;24.20;1.00;;;;;;5035533;28;20155;-64
2023/05/09 10:39:03;;;;;;;11.00;9.77;;;24.40;1.00;;;;;;5035443;28;20071;-64
2023/05/09 10:41:29;;;;;;;10.05;9.05;;;24.20;1.00;;;;;;5035354;28;20049;-64
2023/05/09 10:43:57;;;;;;;9.48;8.48;;;24.40;1.00;;;;;;5035434;28;20130;-64
2023/05/09 10:46:23;;;;;;;9.48;8.55;;;24.40;1.00;;;;;;5035447;28;20025;-64
2023/05/09 10:48:49;;;;;;;8.85;7.95;;;24.20;1.00;;;;;;5047117;28;20029;-64
2023/05/09 10:51:16;;;;;;;8.55;7.75;;;24.20;1.00;;;;;;5036198;28;20049;-64
2023/05/09 10:53:43;;;;;;;9.18;8.15;;;24.10;1.00;;;;;;5035367;28;20025;-64
2023/05/09 10:56:20;;;;;;;9.23;8.05;;;24.00;1.00;;;;;;5033783;28;20033;-64
2023/05/09 10:58:47;;;;;;;10.55;8.35;;;24.00;1.00;;;;;;5035196;28;20068;-64
2023/05/09 11:01:12;;;;;;;10.00;9.10;;;24.00;1.00;;;;;;5035229;28;20116;-64
2023/05/09 11:03:54;;;;;;;11.15;9.80;;;24.10;1.00;;;;;;5034943;28;20120;-64
2023/05/09 11:06:40;;;;;;;11.18;10.07;;;24.20;1.00;;;;;;5035141;28;20048;-65
2023/05/09 11:09:27;;;;;;;10.55;9.65;;;24.50;1.00;;;;;;5034411;28;20013;-64
2023/05/09 11:11:55;;;;;;;9.65;8.80;;;24.60;1.00;;;;;;5050366;28;20431;-65
2023/05/09 11:14:44;;;;;;;10.45;9.45;;;24.80;1.00;;;;;;5032938;28;20034;-65
2023/05/09 11:17:26;;;;;;;12.23;11.02;;;24.80;1.00;;;;;;5031070;28;20030;-64
2023/05/09 11:19:52;;;;;;;19.42;11.57;;;24.90;1.00;;;;;;5034696;28;20030;-64
2023/05/09 11:22:23;;;;;;;25.67;11.30;;;25.20;1.00;;;;;;5034518;28;20522;-65
2023/05/09 11:25:03;;;;;;;24.65;12.77;;;25.50;1.00;;;;;;5034642;28;20183;-64
2023/05/09 11:27:40;;;;;;;13.50;10.35;;;25.70;1.00;;;;;;5034521;28;20105;-64
2023/05/09 11:30:07;;;;;;;13.57;11.43;;;26.00;1.00;;;;;;5034429;28;20036;-64
2023/05/09 11:32:40;;;;;;;13.25;11.90;;;25.90;1.00;;;;;;5034599;28;20025;-64
2023/05/09 11:35:08;;;;;;;19.43;13.53;;;25.70;1.00;;;;;;5031829;28;20033;-64
2023/05/09 11:37:43;;;;;;;12.35;11.15;;;26.00;1.00;;;;;;5033341;28;20036;-63
2023/05/09 11:40:12;;;;;;;12.05;10.88;;;26.10;1.00;;;;;;5032760;28;20036;-63
2023/05/09 11:42:52;;;;;;;12.63;11.43;;;26.30;1.00;;;;;;5033229;28;20034;-64
2023/05/09 11:45:18;;;;;;;17.95;13.18;;;26.70;1.00;;;;;;5024432;28;20033;-64
2023/05/09 11:47:45;;;;;;;15.27;12.25;;;26.90;1.00;;;;;;5034133;28;20510;-64
2023/05/09 11:50:13;;;;;;;24.23;21.60;;;27.30;1.00;;;;;;5034149;28;20033;-64
2023/05/09 11:52:40;;;;;;;12.98;11.80;;;27.50;1.00;;;;;;5034228;28;20025;-64
2023/05/09 11:55:17;;;;;;;11.68;10.48;;;27.90;1.00;;;;;;5033946;28;20021;-64
2023/05/09 11:57:50;;;;;;;14.70;13.40;;;28.20;1.00;;;;;;5034147;28;20079;-64
2023/05/09 12:00:23;;;;;;;11.13;9.82;;;28.70;99.90;;;;;;5033817;28;20021;-63
2023/05/09 12:02:51;;;;;;;11.50;10.40;;;29.50;99.90;;;;;;5034396;28;20104;-64
2023/05/09 12:05:18;;;;;;;23.40;13.18;;;30.20;99.90;;;;;;5034072;28;20041;-65
2023/05/09 12:07:45;;;;;;;11.20;10.02;;;31.00;99.90;;;;;;5034563;28;20408;-64
2023/05/09 12:10:13;;;;;;;13.85;9.30;;;30.70;99.90;;;;;;5033894;28;20033;-64
2023/05/09 12:12:49;;;;;;;17.35;10.23;;;30.50;99.90;;;;;;5034067;28;20049;-64
2023/05/09 12:15:15;;;;;;;17.63;10.93;;;31.50;99.90;;;;;;5034212;28;20414;-64
2023/05/09 12:17:45;;;;;;;8.55;7.15;;;33.10;99.90;;;;;;5033850;28;20025;-65
2023/05/09 12:20:11;;;;;;;10.18;7.07;;;34.00;99.90;;;;;;5047821;28;20056;-64
2023/05/09 12:22:37;;;;;;;7.50;6.80;;;33.60;99.90;;;;;;5033554;28;20471;-63
2023/05/09 12:25:08;;;;;;;10.63;8.30;;;33.30;99.90;;;;;;5033450;28;20033;-63
2023/05/09 12:27:36;;;;;;;9.05;7.43;;;33.30;99.90;;;;;;5033719;28;20029;-61
2023/05/09 12:30:09;;;;;;;11.32;8.82;;;33.70;99.90;;;;;;5032019;28;20033;-63
2023/05/09 12:32:37;;;;;;;16.67;8.40;;;33.20;99.90;;;;;;5032563;28;20489;-63
2023/05/09 12:35:03;;;;;;;11.20;7.90;;;32.20;99.90;;;;;;5033561;28;20029;-63
2023/05/09 12:37:33;;;;;;;15.13;9.15;;;31.30;99.90;;;;;;5032453;28;20037;-68
2023/05/09 12:40:10;;;;;;;10.07;9.07;;;31.10;99.90;;;;;;5029095;28;20035;-67
2023/05/09 12:42:35;;;;;;;10.10;9.27;;;31.10;99.90;;;;;;5033671;28;20034;-60
2023/05/09 12:45:02;;;;;;;17.60;10.13;;;30.90;99.90;;;;;;5033424;28;20037;-60
2023/05/09 12:47:28;;;;;;;13.32;8.82;;;31.20;99.90;;;;;;5032165;28;20548;-60
2023/05/09 12:50:02;;;;;;;8.93;8.13;;;30.80;99.90;;;;;;5033214;28;20037;-60